Time;durP1;ratioP1;P1;durP2;ratioP2;P2;SDS_P1;SDS_P2;PMS_P1;PMS_P2;Temp;Humidity;BMP_temperature;BMP_pressure;BME280_temperature;BME280_humidity;BME280_pressure;Samples;Min_cycle;Max_cycle;Signal;HPM_P1;HPM_P2
2022/07/05 00:00:16;;;;;;;4.17;3.67;;;;;;;27.97;43.83;100693.69;1712167;82;21003;-83
2022/07/05 00:02:43;;;;;;;4.08;3.67;;;;;;;27.98;43.83;100693.91;1712406;82;21069;-83
2022/07/05 00:05:09;;;;;;;3.75;3.22;;;;;;;27.97;43.85;100691.70;1685876;83;21778;-83
2022/07/05 00:07:36;;;;;;;4.25;3.55;;;;;;;27.97;43.85;100688.09;1686317;83;21054;-83
2022/07/05 00:10:03;;;;;;;4.83;3.50;;;;;;;27.98;43.84;100688.32;1712564;82;21102;-83
2022/07/05 00:12:32;;;;;;;5.08;3.70;;;;;;;27.97;43.87;100683.90;1712811;82;21600;-83
2022/07/05 00:14:59;;;;;;;4.35;3.65;;;;;;;27.97;43.87;100686.70;1712840;83;21145;-82
2022/07/05 00:17:26;;;;;;;5.33;3.58;;;;;;;27.97;43.89;100686.70;1712739;83;21891;-82
2022/07/05 00:19:52;;;;;;;3.98;3.58;;;;;;;27.95;43.88;100687.09;1712268;83;21568;-82
2022/07/05 00:22:19;;;;;;;3.65;3.02;;;;;;;27.96;43.89;100678.11;1712602;83;21027;-82
2022/07/05 00:24:45;;;;;;;4.87;3.67;;;;;;;27.96;43.90;100682.30;1701022;83;21534;-82
2022/07/05 00:27:12;;;;;;;4.40;3.37;;;;;;;27.96;43.89;100677.52;1725493;83;20948;-82
2022/07/05 00:29:41;;;;;;;3.83;3.45;;;;;;;27.96;43.90;100685.09;1725577;82;21139;-82
2022/07/05 00:32:07;;;;;;;3.85;3.47;;;;;;;27.96;43.91;100673.91;1725516;82;20993;-83
2022/07/05 00:34:33;;;;;;;3.30;3.00;;;;;;;27.95;43.91;100673.10;1710835;83;21073;-82
2022/07/05 00:37:01;;;;;;;4.70;3.77;;;;;;;27.95;43.92;100675.90;1711262;83;21061;-82
2022/07/05 00:39:28;;;;;;;4.03;3.17;;;;;;;27.96;43.95;100671.12;1710504;83;21037;-82
2022/07/05 00:41:54;;;;;;;3.58;3.27;;;;;;;27.95;43.94;100668.09;1710762;83;21171;-83
2022/07/05 00:44:30;;;;;;;4.75;3.60;;;;;;;27.95;43.95;100663.91;1710921;83;21002;-83
2022/07/05 00:46:57;;;;;;;4.37;3.60;;;;;;;27.95;43.95;100660.52;1710859;83;21120;-83
2022/07/05 00:49:23;;;;;;;4.10;3.70;;;;;;;27.94;43.95;100659.48;1710857;83;21041;-83
2022/07/05 00:51:49;;;;;;;4.53;3.27;;;;;;;27.94;43.97;100659.48;1711127;83;21073;-83
2022/07/05 00:54:16;;;;;;;4.55;3.20;;;;;;;27.95;43.98;100656.91;1710896;83;21045;-83
2022/07/05 00:56:44;;;;;;;3.87;3.47;;;;;;;27.94;43.98;100655.28;1710890;83;21060;-82
2022/07/05 00:59:10;;;;;;;3.83;3.45;;;;;;;27.94;43.99;100656.10;1711210;83;21111;-83
2022/07/05 01:01:37;;;;;;;3.30;3.00;;;;;;;27.94;43.99;100646.89;1686291;83;21587;-83
2022/07/05 01:04:03;;;;;;;4.90;3.52;;;;;;;27.93;44.00;100644.69;1711806;82;21097;-83
2022/07/05 01:06:30;;;;;;;3.72;3.25;;;;;;;27.94;43.99;100648.30;1740739;82;21542;-83
2022/07/05 01:08:56;;;;;;;4.65;3.70;;;;;;;27.93;44.02;100643.87;1740327;81;21607;-83
2022/07/05 01:11:23;;;;;;;5.22;3.27;;;;;;;27.92;44.03;100645.86;1740593;81;21060;-83
2022/07/05 01:13:49;;;;;;;3.72;3.30;;;;;;;27.92;44.04;100642.28;1740457;81;21226;-84
2022/07/05 01:16:15;;;;;;;5.15;3.50;;;;;;;27.93;44.03;100641.89;1740519;81;21435;-83
2022/07/05 01:18:43;;;;;;;4.42;3.42;;;;;;;27.92;44.08;100640.27;1740719;82;21177;-83
2022/07/05 01:21:10;;;;;;;4.53;3.52;;;;;;;27.92;44.08;100638.88;1740221;82;21061;-82
2022/07/05 01:23:36;;;;;;;3.67;3.10;;;;;;;27.92;44.08;100636.07;1715358;82;21029;-83
2022/07/05 01:26:02;;;;;;;4.00;3.60;;;;;;;27.92;44.09;100639.48;1737617;82;21108;-83
2022/07/05 01:28:29;;;;;;;4.78;3.45;;;;;;;27.90;44.08;100642.64;1738981;82;21555;-83
2022/07/05 01:30:55;;;;;;;3.98;3.30;;;;;;;27.91;44.08;100642.06;1764415;81;21104;-83
2022/07/05 01:33:32;;;;;;;5.75;3.60;;;;;;;27.92;44.10;100640.27;1764597;81;21089;-83
2022/07/05 01:35:59;;;;;;;5.05;3.42;;;;;;;27.91;44.10;100644.27;1764635;81;21375;-84
2022/07/05 01:38:25;;;;;;;4.28;3.58;;;;;;;27.92;44.11;100639.48;1764797;81;21527;-83
2022/07/05 01:40:51;;;;;;;3.72;3.08;;;;;;;27.91;44.12;100637.28;1762667;81;20989;-83
2022/07/05 01:43:22;;;;;;;4.42;3.40;;;;;;;27.91;44.11;100638.67;1754603;81;21167;-83
2022/07/05 01:45:48;;;;;;;5.05;3.62;;;;;;;27.90;44.12;100638.45;1754982;81;21066;-82
2022/07/05 01:48:19;;;;;;;4.00;2.92;;;;;;;27.91;44.13;100637.86;1754965;81;22253;-82
2022/07/05 01:51:21;;;;;;;4.70;3.30;;;;;;;27.90;44.14;100641.25;1754465;81;21111;-82
2022/07/05 01:53:47;;;;;;;5.72;3.50;;;;;;;27.89;44.16;100642.42;1754621;80;21045;-83
2022/07/05 01:56:13;;;;;;;5.53;3.50;;;;;;;27.89;44.16;100646.61;1754435;81;21173;-83
2022/07/05 01:58:40;;;;;;;4.90;2.87;;;;;;;27.89;44.16;100649.41;1754646;81;21115;-83
2022/07/05 02:01:06;;;;;;;4.12;3.35;;;;;;;27.88;44.18;100657.56;1754880;81;21447;-83
2022/07/05 02:03:33;;;;;;;3.58;3.10;;;;;;;27.88;44.17;100653.38;1754280;81;21593;-82
2022/07/05 02:05:59;;;;;;;4.62;3.40;;;;;;;27.89;44.18;100655.59;1754665;81;20970;-82
2022/07/05 02:08:30;;;;;;;4.33;3.52;;;;;;;27.89;44.20;100655.59;1754426;81;21033;-83
2022/07/05 02:10:57;;;;;;;4.17;3.30;;;;;;;27.88;44.21;100651.20;1754201;81;21041;-83
2022/07/05 02:13:29;;;;;;;4.80;3.30;;;;;;;27.88;44.19;100658.19;1737297;80;21099;-83
2022/07/05 02:15:56;;;;;;;3.87;3.47;;;;;;;27.87;44.21;100653.18;1754497;80;21091;-82
2022/07/05 02:18:22;;;;;;;4.90;3.67;;;;;;;27.87;44.22;100650.38;1740545;81;21085;-82
2022/07/05 02:20:49;;;;;;;4.25;3.40;;;;;;;27.88;44.23;100650.58;1724192;82;21669;-82
2022/07/05 02:23:15;;;;;;;4.05;3.50;;;;;;;27.87;44.24;100648.98;1734017;82;20957;-83
2022/07/05 02:25:42;;;;;;;6.60;4.45;;;;;;;27.88;44.24;100653.99;1736294;82;21037;-83
2022/07/05 02:28:08;;;;;;;6.00;3.35;;;;;;;27.87;44.24;100660.17;1736948;82;21045;-82
2022/07/05 02:30:34;;;;;;;3.90;3.45;;;;;;;27.87;44.25;100664.36;1736962;82;21061;-83
2022/07/05 02:33:01;;;;;;;4.47;3.40;;;;;;;27.87;44.26;100657.37;1736885;82;21155;-83
2022/07/05 02:35:27;;;;;;;4.97;3.33;;;;;;;27.87;44.27;100662.97;1737085;82;21484;-82
2022/07/05 02:37:54;;;;;;;4.45;4.05;;;;;;;27.87;44.28;100667.16;1737005;82;21114;-83
2022/07/05 02:40:20;;;;;;;3.87;3.22;;;;;;;27.87;44.28;100668.56;1736693;82;21065;-83
2022/07/05 02:42:47;;;;;;;4.20;3.40;;;;;;;27.87;44.27;100667.75;1737066;82;21269;-82
2022/07/05 02:45:13;;;;;;;5.00;3.50;;;;;;;27.86;44.28;100672.52;1737137;82;21046;-82
2022/07/05 02:47:40;;;;;;;4.85;3.70;;;;;;;27.86;44.28;100673.92;1736757;82;21085;-82
2022/07/05 02:50:10;;;;;;;4.05;3.35;;;;;;;27.86;44.31;100671.13;1737011;82;21053;-83
2022/07/05 02:52:36;;;;;;;4.65;3.35;;;;;;;27.86;44.29;100664.14;1737190;82;21073;-83
2022/07/05 02:55:04;;;;;;;4.47;3.90;;;;;;;27.86;44.29;100669.73;1696034;82;21066;-83
2022/07/05 02:57:30;;;;;;;4.62;3.33;;;;;;;27.86;44.31;100665.53;1724903;83;21834;-82
2022/07/05 02:59:57;;;;;;;4.15;3.17;;;;;;;27.85;44.33;100659.72;1736837;82;21039;-82
2022/07/05 03:02:23;;;;;;;6.25;3.37;;;;;;;27.86;44.33;100671.72;1736576;82;21122;-82
2022/07/05 03:04:50;;;;;;;4.10;3.47;;;;;;;27.85;44.34;100665.31;1736863;82;21082;-82
2022/07/05 03:07:16;;;;;;;5.17;3.62;;;;;;;27.84;44.36;100666.48;1724015;83;21560;-82
2022/07/05 03:09:43;;;;;;;4.35;3.58;;;;;;;27.85;44.38;100670.90;1736559;82;21011;-82
2022/07/05 03:12:09;;;;;;;5.37;3.65;;;;;;;27.86;44.35;100667.52;1736688;82;21035;-82
2022/07/05 03:14:35;;;;;;;4.97;3.40;;;;;;;27.85;44.35;100665.31;1736726;82;21054;-82
2022/07/05 03:17:02;;;;;;;4.45;3.67;;;;;;;27.85;44.36;100658.91;1736662;82;21052;-82
2022/07/05 03:19:28;;;;;;;6.03;3.67;;;;;;;27.86;44.35;100668.92;1736925;82;21058;-82
2022/07/05 03:21:55;;;;;;;6.35;3.58;;;;;;;27.85;44.36;100664.50;1737005;82;21064;-82
2022/07/05 03:24:21;;;;;;;5.67;3.58;;;;;;;27.85;44.36;100663.09;1736184;82;21142;-82
2022/07/05 03:26:48;;;;;;;5.35;3.83;;;;;;;27.85;44.39;100662.52;1733719;82;21059;-82
2022/07/05 03:29:14;;;;;;;4.42;3.45;;;;;;;27.85;44.39;100660.30;1734145;81;21546;-82
2022/07/05 03:31:41;;;;;;;5.67;3.58;;;;;;;27.85;44.39;100663.09;1723936;83;21040;-82
2022/07/05 03:34:07;;;;;;;4.33;3.40;;;;;;;27.84;44.38;100653.90;1734126;82;21122;-82
2022/07/05 03:36:34;;;;;;;5.10;3.52;;;;;;;27.83;44.40;100653.70;1733849;82;21082;-82
2022/07/05 03:39:00;;;;;;;4.85;3.47;;;;;;;27.85;44.39;100660.30;1733717;81;21058;-82
2022/07/05 03:41:26;;;;;;;4.78;3.72;;;;;;;27.85;44.39;100658.91;1734017;81;21014;-83
2022/07/05 03:43:53;;;;;;;4.35;3.05;;;;;;;27.84;44.39;100662.29;1724206;83;21076;-82
2022/07/05 03:46:19;;;;;;;5.28;3.70;;;;;;;27.84;44.40;100666.48;1733835;82;21113;-82
2022/07/05 03:48:46;;;;;;;4.78;3.95;;;;;;;27.85;44.41;100663.91;1733594;82;21588;-82
2022/07/05 03:51:12;;;;;;;4.62;3.35;;;;;;;27.85;44.40;100668.69;1733893;82;21110;-82
2022/07/05 03:53:39;;;;;;;4.55;3.40;;;;;;;27.85;44.40;100677.08;1706527;82;21062;-83
2022/07/05 03:56:05;;;;;;;5.78;3.45;;;;;;;27.85;44.41;100672.88;1733995;81;21091;-82
2022/07/05 03:58:31;;;;;;;5.10;3.47;;;;;;;27.84;44.43;100679.68;1733807;81;21421;-82
2022/07/05 04:00:58;;;;;;;5.47;3.50;;;;;;;27.84;44.42;100681.86;1733621;81;21541;-82
2022/07/05 04:03:24;;;;;;;5.92;3.83;;;;;;;27.85;44.41;100679.29;1706887;82;21512;-82
2022/07/05 04:05:51;;;;;;;4.25;3.70;;;;;;;27.84;44.42;100679.06;1723930;82;21101;-83
2022/07/05 04:08:17;;;;;;;5.42;3.95;;;;;;;27.83;44.41;100678.87;1711317;83;21056;-82
2022/07/05 04:10:44;;;;;;;4.53;3.35;;;;;;;27.85;44.41;100687.67;1711636;83;21236;-83
2022/07/05 04:13:10;;;;;;;5.08;3.90;;;;;;;27.85;44.42;100689.66;1711415;83;20948;-82
2022/07/05 04:15:36;;;;;;;6.85;3.90;;;;;;;27.84;44.42;100693.05;1711454;82;21032;-82
2022/07/05 04:18:04;;;;;;;4.78;3.37;;;;;;;27.85;44.44;100689.08;1711220;83;21024;-82
2022/07/05 04:20:31;;;;;;;3.55;3.20;;;;;;;27.85;44.44;100687.67;1711454;82;21128;-82
2022/07/05 04:22:57;;;;;;;4.42;3.60;;;;;;;27.86;44.44;100694.08;1710959;82;21107;-82
2022/07/05 04:25:24;;;;;;;5.83;3.60;;;;;;;27.84;44.44;100688.84;1711275;83;21541;-82
2022/07/05 04:27:56;;;;;;;4.58;3.60;;;;;;;27.85;44.45;100689.08;1711436;82;21052;-83
2022/07/05 04:30:24;;;;;;;5.12;3.45;;;;;;;27.85;44.45;100697.47;1711370;82;21068;-82
2022/07/05 04:32:51;;;;;;;4.70;3.72;;;;;;;27.85;44.45;100691.88;1711641;83;21040;-82
2022/07/05 04:35:17;;;;;;;5.00;3.40;;;;;;;27.85;44.45;100688.27;1711672;83;21052;-82
2022/07/05 04:37:44;;;;;;;5.08;3.50;;;;;;;27.84;44.46;100693.05;1711506;83;21088;-82
2022/07/05 04:40:12;;;;;;;5.58;3.95;;;;;;;27.85;44.45;100698.86;1711870;83;21087;-82
2022/07/05 04:42:38;;;;;;;4.08;3.52;;;;;;;27.85;44.46;100703.05;1724651;82;21550;-82
2022/07/05 04:45:06;;;;;;;6.45;4.00;;;;;;;27.85;44.46;100698.86;1737438;82;21502;-83
2022/07/05 04:47:33;;;;;;;4.05;3.42;;;;;;;27.85;44.46;100699.45;1739150;81;21040;-83
2022/07/05 04:50:00;;;;;;;4.20;3.40;;;;;;;27.85;44.45;100694.67;1763707;80;21069;-82
2022/07/05 04:52:26;;;;;;;6.12;3.30;;;;;;;27.85;44.36;100703.05;1763522;81;21123;-82
2022/07/05 04:54:53;;;;;;;8.28;2.80;;;;;;;27.79;44.25;100703.73;1764605;81;21669;-82
2022/07/05 04:57:19;;;;;;;6.30;3.02;;;;;;;27.68;44.07;100702.11;1764536;81;21038;-82
2022/07/05 04:59:45;;;;;;;3.42;2.40;;;;;;;27.63;44.06;100712.99;1764414;81;21125;-82
2022/07/05 05:02:12;;;;;;;7.10;2.65;;;;;;;27.60;43.92;100716.53;1736536;81;21065;-82
2022/07/05 05:04:38;;;;;;;10.28;2.85;;;;;;;27.56;43.78;100709.25;1764463;81;21018;-82
2022/07/05 05:07:05;;;;;;;6.72;2.80;;;;;;;27.52;43.66;100711.16;1760205;81;21053;-82
2022/07/05 05:09:31;;;;;;;7.42;2.50;;;;;;;27.50;43.64;100710.12;1753517;81;21462;-82
2022/07/05 05:11:58;;;;;;;6.50;2.50;;;;;;;27.49;43.56;100707.71;1732892;82;22108;-82
2022/07/05 05:14:24;;;;;;;9.05;2.90;;;;;;;27.42;43.59;100701.92;1731836;82;21039;-82
2022/07/05 05:16:50;;;;;;;5.78;2.37;;;;;;;27.42;43.55;100706.92;1754091;81;22334;-83
2022/07/05 05:19:17;;;;;;;8.85;2.90;;;;;;;27.37;43.51;100701.63;1758921;81;21523;-82
2022/07/05 05:21:43;;;;;;;11.68;3.10;;;;;;;27.34;43.50;100705.74;1754168;81;21057;-82
2022/07/05 05:24:10;;;;;;;7.12;2.70;;;;;;;27.32;43.49;100706.70;1754072;81;21547;-82
2022/07/05 05:26:36;;;;;;;5.85;2.05;;;;;;;27.28;43.44;100706.02;1745307;81;21046;-82
2022/07/05 05:29:03;;;;;;;10.32;2.45;;;;;;;27.28;43.44;100709.43;1743656;81;20975;-83
2022/07/05 05:31:30;;;;;;;11.65;2.98;;;;;;;27.25;43.44;100704.55;1732339;81;21059;-84
2022/07/05 05:33:56;;;;;;;11.50;2.98;;;;;;;27.26;43.50;100708.97;1724418;83;21122;-83
2022/07/05 05:36:22;;;;;;;6.30;2.70;;;;;;;27.27;43.50;100703.61;1725644;81;21250;-84
2022/07/05 05:38:49;;;;;;;11.35;3.40;;;;;;;27.32;43.45;100709.50;1741746;81;21560;-82
2022/07/05 05:41:15;;;;;;;11.68;2.58;;;;;;;27.32;43.41;100708.92;1727105;82;21097;-84
2022/07/05 05:43:41;;;;;;;16.32;3.15;;;;;;;27.32;43.45;100710.91;1733562;82;21183;-83
2022/07/05 05:46:08;;;;;;;14.80;3.40;;;;;;;27.34;43.52;100712.14;1725476;82;21030;-82
2022/07/05 05:48:35;;;;;;;15.63;3.47;;;;;;;27.36;43.49;100718.77;1723751;82;21874;-84
2022/07/05 05:51:01;;;;;;;8.18;3.10;;;;;;;27.37;43.43;100714.19;1711150;82;21050;-83
2022/07/05 05:53:34;;;;;;;9.70;2.75;;;;;;;27.37;43.43;100713.41;1725949;82;21033;-83
2022/07/05 05:56:00;;;;;;;11.22;2.92;;;;;;;27.37;43.37;100713.41;1720529;82;21033;-84
2022/07/05 05:58:27;;;;;;;14.35;2.90;;;;;;;27.39;43.35;100725.02;1694408;82;21062;-83
2022/07/05 06:00:53;;;;;;;13.15;3.40;;;;;;;27.40;43.37;100722.45;1719435;82;21476;-83
2022/07/05 06:03:24;;;;;;;13.00;2.90;;;;;;;27.41;43.34;100720.70;1729300;82;21065;-82
2022/07/05 06:05:51;;;;;;;22.07;4.47;;;;;;;27.43;43.30;100720.31;1731891;82;21507;-82
2022/07/05 06:08:17;;;;;;;15.08;4.55;;;;;;;27.45;43.22;100717.98;1734650;81;21030;-83
2022/07/05 06:10:45;;;;;;;10.43;3.77;;;;;;;27.48;43.24;100718.66;1745495;81;20986;-81
2022/07/05 06:13:12;;;;;;;16.77;3.77;;;;;;;27.49;43.12;100722.50;1717472;82;21124;-82
2022/07/05 06:15:39;;;;;;;16.10;3.20;;;;;;;27.50;42.94;100717.69;1701105;82;21046;-82
2022/07/05 06:18:07;;;;;;;9.65;3.20;;;;;;;27.50;42.91;100716.30;1720141;82;21395;-82
2022/07/05 06:20:34;;;;;;;11.60;3.40;;;;;;;27.49;42.82;100716.91;1710994;82;21108;-83
2022/07/05 06:23:01;;;;;;;17.05;3.12;;;;;;;27.49;42.85;100714.70;1720265;81;21094;-83
2022/07/05 06:25:28;;;;;;;10.20;3.12;;;;;;;27.50;42.86;100719.09;1687138;83;21118;-82
2022/07/05 06:27:57;;;;;;;21.35;3.50;;;;;;;27.50;42.96;100709.31;1740946;81;21078;-82
2022/07/05 06:30:25;;;;;;;20.82;5.25;;;;;;;27.54;42.98;100721.40;1738702;82;21096;-83
2022/07/05 06:32:52;;;;;;;13.25;3.10;;;;;;;27.55;42.95;100721.59;1744168;81;21052;-83
2022/07/05 06:35:18;;;;;;;9.38;2.90;;;;;;;27.57;42.84;100720.66;1735387;81;21108;-82
2022/07/05 06:37:55;;;;;;;8.23;2.75;;;;;;;27.59;42.63;100723.30;1749417;82;21513;-83
2022/07/05 06:40:25;;;;;;;17.50;10.08;;;;;;;27.60;42.57;100715.72;1745547;81;21413;-83
2022/07/05 06:42:54;;;;;;;10.08;3.33;;;;;;;27.60;42.36;100713.73;1731883;82;21076;-83
2022/07/05 06:45:26;;;;;;;14.30;4.03;;;;;;;27.61;42.25;100721.54;1722650;82;21071;-83
2022/07/05 06:47:57;;;;;;;13.50;4.42;;;;;;;27.61;42.16;100721.54;1730027;81;21102;-82
2022/07/05 06:50:24;;;;;;;12.30;4.03;;;;;;;27.63;42.06;100714.98;1742072;82;21850;-83
2022/07/05 06:52:50;;;;;;;10.85;3.62;;;;;;;27.64;42.00;100720.21;1727751;82;21116;-83
2022/07/05 06:55:17;;;;;;;13.72;3.52;;;;;;;27.66;42.01;100717.06;1741938;82;21073;-85
2022/07/05 06:57:45;;;;;;;8.48;2.98;;;;;;;27.67;42.09;100715.86;1729940;81;21108;-82
2022/07/05 07:00:12;;;;;;;10.00;2.62;;;;;;;27.68;42.06;100716.90;1710380;82;21306;-84
2022/07/05 07:02:39;;;;;;;9.20;2.92;;;;;;;27.69;41.95;100712.13;1737495;82;21189;-85
2022/07/05 07:05:07;;;;;;;12.82;2.87;;;;;;;27.70;41.89;100716.55;1734819;81;21032;-82
2022/07/05 07:10:19;;;;;;;8.55;2.80;;;;;;;27.74;42.10;100710.44;1743733;81;21116;-83
2022/07/05 07:12:45;;;;;;;9.98;3.20;;;;;;;27.79;42.00;100714.34;1738309;81;21630;-82
2022/07/05 07:15:14;;;;;;;11.65;2.95;;;;;;;27.81;41.89;100710.56;1730462;81;21033;-82
2022/07/05 07:17:40;;;;;;;17.02;3.33;;;;;;;27.83;41.75;100713.00;1727791;81;21026;-82
2022/07/05 07:20:07;;;;;;;12.65;3.30;;;;;;;27.83;41.65;100714.40;1738848;81;21080;-81
2022/07/05 07:22:34;;;;;;;9.33;3.00;;;;;;;27.86;41.47;100713.66;1725565;81;21124;-82
2022/07/05 07:25:00;;;;;;;8.23;2.95;;;;;;;27.87;41.38;100712.48;1758480;81;21069;-82
2022/07/05 07:27:27;;;;;;;10.38;2.87;;;;;;;27.89;41.33;100712.91;1742058;80;21621;-82
2022/07/05 07:29:54;;;;;;;18.05;3.55;;;;;;;27.89;41.33;100712.32;1754401;80;21081;-81
2022/07/05 07:32:20;;;;;;;7.17;2.67;;;;;;;27.91;41.40;100719.77;1739949;81;21137;-83
2022/07/05 07:34:46;;;;;;;10.08;3.20;;;;;;;27.92;41.50;100718.56;1745286;81;21009;-83
2022/07/05 07:37:13;;;;;;;11.78;2.90;;;;;;;27.93;41.50;100717.39;1756312;80;21140;-82
2022/07/05 07:39:40;;;;;;;9.85;3.05;;;;;;;27.95;41.39;100710.05;1729875;81;21557;-84
2022/07/05 07:42:08;;;;;;;10.48;3.35;;;;;;;27.96;41.15;100713.06;1735747;82;21033;-84
2022/07/05 07:44:34;;;;;;;8.28;3.50;;;;;;;27.96;40.89;100713.88;1731643;81;21069;-83
2022/07/05 07:47:01;;;;;;;8.63;3.42;;;;;;;27.97;40.69;100714.66;1710498;82;21030;-83
2022/07/05 07:49:27;;;;;;;4.72;2.90;;;;;;;27.99;40.50;100708.94;1703922;84;21066;-83
2022/07/05 07:51:54;;;;;;;8.18;2.95;;;;;;;28.01;40.31;100716.34;1710705;82;21150;-82
2022/07/05 07:54:20;;;;;;;12.15;3.40;;;;;;;28.02;40.20;100712.38;1753107;81;21471;-83
2022/07/05 07:56:47;;;;;;;11.35;3.50;;;;;;;28.05;40.03;100715.05;1727145;82;21106;-83
2022/07/05 07:59:13;;;;;;;5.75;2.72;;;;;;;28.08;39.95;100716.50;1739822;81;21260;-82
2022/07/05 08:01:40;;;;;;;6.05;3.10;;;;;;;28.08;39.98;100709.52;1738342;81;21395;-82
2022/07/05 08:04:06;;;;;;;5.42;2.72;;;;;;;28.08;40.00;100707.30;1726915;82;21808;-81
2022/07/05 08:06:33;;;;;;;8.15;3.05;;;;;;;28.10;39.96;100717.54;1713301;82;21016;-83
2022/07/05 08:08:59;;;;;;;9.58;2.95;;;;;;;28.14;39.84;100711.42;1712389;82;21021;-82
2022/07/05 08:11:26;;;;;;;7.85;3.45;;;;;;;28.19;39.74;100709.72;1722534;83;21033;-82
2022/07/05 08:13:52;;;;;;;7.62;3.00;;;;;;;28.22;39.74;100710.37;1727135;82;21039;-83
2022/07/05 08:16:19;;;;;;;5.22;2.95;;;;;;;28.24;39.68;100711.41;1741001;81;21213;-82
2022/07/05 08:21:39;;;;;;;5.87;2.75;;;;;;;28.22;39.56;100707.57;1756424;81;21095;-84
2022/07/05 08:24:13;;;;;;;6.00;3.22;;;;;;;28.21;39.45;100709.36;1743604;81;21047;-84
2022/07/05 08:26:40;;;;;;;6.35;3.00;;;;;;;28.22;39.25;100712.39;1729736;82;21040;-85
2022/07/05 08:29:11;;;;;;;10.60;3.10;;;;;;;28.23;39.12;100713.39;1692717;83;21140;-84
2022/07/05 08:31:44;;;;;;;6.10;3.05;;;;;;;28.24;39.05;100708.02;1727237;81;21575;-83
2022/07/05 08:34:11;;;;;;;7.53;2.95;;;;;;;28.25;39.04;100708.25;1713874;83;21100;-84
2022/07/05 08:36:38;;;;;;;5.90;2.60;;;;;;;28.25;39.24;100705.45;1674477;83;21704;-83
2022/07/05 08:39:05;;;;;;;6.25;2.98;;;;;;;28.24;39.43;100710.02;1702634;82;21150;-83
2022/07/05 08:41:36;;;;;;;8.00;3.52;;;;;;;28.22;39.58;100706.17;1694317;82;22268;-82
2022/07/05 08:44:03;;;;;;;10.72;3.25;;;;;;;28.21;39.83;100708.78;1735528;81;21078;-82
2022/07/05 08:46:34;;;;;;;4.92;2.87;;;;;;;28.20;40.15;100701.55;1725381;81;21115;-82
2022/07/05 08:49:04;;;;;;;5.22;2.83;;;;;;;28.20;40.34;100699.34;1721244;81;21513;-83
2022/07/05 08:51:38;;;;;;;5.33;3.30;;;;;;;28.21;40.25;100702.38;1726350;81;21028;-83
2022/07/05 08:54:05;;;;;;;5.85;3.40;;;;;;;28.23;39.96;100699.99;1727994;81;21119;-82
2022/07/05 08:56:31;;;;;;;6.58;3.42;;;;;;;28.25;39.82;100697.64;1723451;81;21116;-82
2022/07/05 08:58:58;;;;;;;10.72;3.17;;;;;;;28.27;39.67;100692.47;1723626;81;21286;-82
2022/07/05 09:01:25;;;;;;;6.47;2.98;;;;;;;28.29;39.71;100690.94;1730477;81;21064;-83
2022/07/05 09:03:52;;;;;;;12.80;3.42;;;;;;;28.31;39.59;100694.15;1730842;80;21930;-82
2022/07/05 09:06:21;;;;;;;8.75;2.92;;;;;;;28.35;39.55;100688.61;1729921;81;21136;-82
2022/07/05 09:08:48;;;;;;;3.67;2.67;;;;;;;28.37;39.45;100687.66;1727957;80;21081;-82
2022/07/05 09:11:16;;;;;;;3.95;3.00;;;;;;;28.41;39.37;100685.73;1710788;81;21047;-82
2022/07/05 09:13:46;;;;;;;7.50;3.20;;;;;;;28.43;39.35;100682.77;1732396;81;21072;-81
2022/07/05 09:16:12;;;;;;;7.10;3.40;;;;;;;28.47;39.32;100678.66;1710626;81;21533;-83
2022/07/05 09:18:50;;;;;;;6.62;3.22;;;;;;;28.53;39.19;100677.14;1734291;81;21531;-82
2022/07/05 09:21:20;;;;;;;6.80;3.55;;;;;;;28.56;39.04;100674.98;1725577;81;21044;-82
2022/07/05 09:24:10;;;;;;;7.13;3.70;;;;;;;28.57;39.05;100672.41;1719789;83;21163;-81
2022/07/05 09:26:49;;;;;;;7.47;3.27;;;;;;;28.58;39.01;100667.84;1727889;81;21082;-82
2022/07/05 09:29:18;;;;;;;7.58;3.08;;;;;;;28.65;38.93;100674.13;1725432;81;21052;-82
2022/07/05 09:31:46;;;;;;;5.22;3.33;;;;;;;28.69;38.81;100674.18;1739889;82;22111;-82
2022/07/05 09:34:18;;;;;;;10.65;2.98;;;;;;;28.72;38.71;100674.87;1745845;82;21115;-82
2022/07/05 09:36:54;;;;;;;7.58;3.33;;;;;;;28.72;38.67;100672.08;1724501;81;21547;-82
2022/07/05 09:39:37;;;;;;;8.98;3.45;;;;;;;28.72;38.59;100669.28;1705965;82;21638;-83
2022/07/05 09:42:23;;;;;;;5.08;2.98;;;;;;;28.71;38.55;100668.47;1724574;82;21053;-83
2022/07/05 09:44:56;;;;;;;7.90;3.77;;;;;;;28.73;38.47;100658.30;1741491;82;22086;-82
2022/07/05 09:47:37;;;;;;;5.65;3.20;;;;;;;28.74;38.37;100660.70;1743616;82;21098;-82
2022/07/05 09:50:06;;;;;;;4.45;3.20;;;;;;;28.76;38.27;100651.95;1736548;82;21461;-82
2022/07/05 09:52:41;;;;;;;8.80;3.40;;;;;;;28.77;38.18;100649.37;1708945;83;21119;-82
2022/07/05 09:55:12;;;;;;;5.67;3.45;;;;;;;28.80;38.20;100648.60;1717082;82;21142;-83
2022/07/05 09:57:40;;;;;;;6.28;3.22;;;;;;;28.83;38.18;100653.44;1686826;84;21670;-83
2022/07/05 10:00:14;;;;;;;6.03;2.90;;;;;;;28.84;38.06;100645.26;1705067;83;21068;-81
2022/07/05 10:02:51;;;;;;;5.22;3.12;;;;;;;28.87;38.07;100644.50;1648181;85;21286;-83
2022/07/05 10:05:30;;;;;;;7.83;3.47;;;;;;;28.86;38.07;100643.69;1683896;85;21020;-82
2022/07/05 10:07:58;;;;;;;6.08;3.20;;;;;;;28.91;38.09;100639.75;1683827;83;21106;-82
2022/07/05 10:10:30;;;;;;;5.22;3.17;;;;;;;28.94;38.06;100639.80;1681522;83;22127;-82
2022/07/05 10:12:58;;;;;;;5.33;3.90;;;;;;;28.93;38.01;100631.20;1663863;84;21103;-82
2022/07/05 10:15:31;;;;;;;6.40;3.75;;;;;;;28.90;38.07;100633.34;1688214;83;21083;-81
2022/07/05 10:18:11;;;;;;;8.65;3.47;;;;;;;28.94;38.07;100632.02;1686393;83;21108;-82
2022/07/05 10:20:44;;;;;;;4.58;3.20;;;;;;;28.95;38.00;100627.42;1687188;83;21582;-82
2022/07/05 10:23:13;;;;;;;7.12;3.55;;;;;;;28.96;38.03;100628.23;1679018;83;21123;-83
2022/07/05 10:25:42;;;;;;;8.40;3.10;;;;;;;28.94;38.04;100629.22;1677968;84;21584;-83
2022/07/05 10:28:09;;;;;;;8.90;3.35;;;;;;;28.96;37.98;100619.23;1721194;82;22140;-83
2022/07/05 10:30:35;;;;;;;4.92;2.83;;;;;;;29.01;37.96;100625.91;1749203;81;21109;-83
2022/07/05 10:33:03;;;;;;;5.03;3.50;;;;;;;28.99;37.91;100619.06;1741251;82;21316;-83
2022/07/05 10:35:30;;;;;;;6.87;3.72;;;;;;;28.97;37.92;100613.86;1690992;84;21161;-84
2022/07/05 10:37:57;;;;;;;6.42;3.30;;;;;;;29.00;37.90;100609.48;1686365;84;21519;-84
2022/07/05 10:40:24;;;;;;;5.87;3.30;;;;;;;29.04;37.89;100615.34;1663504;83;33197;-85
2022/07/05 10:42:55;;;;;;;5.45;3.65;;;;;;;29.09;37.82;100612.80;1730377;82;21547;-84
2022/07/05 10:45:35;;;;;;;5.45;3.85;;;;;;;29.12;37.80;100613.44;1714039;82;21096;-85
2022/07/05 10:48:16;;;;;;;5.70;3.50;;;;;;;29.19;37.75;100611.34;1703023;83;21320;-84
2022/07/05 10:50:53;;;;;;;9.68;3.47;;;;;;;29.22;37.63;100611.38;1719422;83;21093;-83
2022/07/05 10:53:24;;;;;;;4.75;3.17;;;;;;;29.31;37.49;100608.31;1685855;83;21037;-84
2022/07/05 10:56:01;;;;;;;7.17;3.33;;;;;;;29.32;37.46;100610.71;1698685;83;21578;-83
2022/07/05 10:58:32;;;;;;;4.35;3.40;;;;;;;29.31;37.48;100601.30;1700079;83;21073;-84
2022/07/05 11:01:23;;;;;;;4.05;3.40;;;;;;;29.28;37.55;100595.82;1721243;82;21117;-83
2022/07/05 11:04:05;;;;;;;5.95;3.50;;;;;;;29.26;37.64;100603.00;1686766;83;21123;-84
2022/07/05 11:06:43;;;;;;;6.05;3.58;;;;;;;29.22;37.68;100604.96;1732521;81;21069;-84
2022/07/05 11:09:14;;;;;;;4.03;3.20;;;;;;;29.21;37.68;100601.34;1710022;83;21058;-83
2022/07/05 11:11:47;;;;;;;7.85;3.20;;;;;;;29.25;37.48;100585.38;1671046;84;21089;-84
2022/07/05 11:14:25;;;;;;;10.10;3.47;;;;;;;29.34;37.42;100596.33;1739817;82;22066;-84
2022/07/05 11:17:22;;;;;;;5.92;3.52;;;;;;;29.38;37.43;100590.17;1692851;83;21068;-82
2022/07/05 11:20:05;;;;;;;7.22;3.60;;;;;;;29.39;37.43;100592.59;1738415;82;21107;-85
2022/07/05 11:22:34;;;;;;;4.75;3.50;;;;;;;29.36;37.47;100586.95;1688520;84;21082;-84
2022/07/05 11:25:01;;;;;;;5.08;3.10;;;;;;;29.30;37.46;100589.28;1663769;86;21041;-84
2022/07/05 11:27:33;;;;;;;4.53;3.50;;;;;;;29.28;37.49;100590.22;1692449;82;21121;-84
2022/07/05 11:29:59;;;;;;;7.25;3.55;;;;;;;29.26;37.51;100583.39;1714621;83;21069;-84
2022/07/05 11:32:36;;;;;;;4.25;3.55;;;;;;;29.25;37.58;100584.58;1714616;83;21222;-84
2022/07/05 11:35:18;;;;;;;5.90;3.50;;;;;;;29.25;37.56;100578.38;1724896;82;21030;-83